Time;durP1;ratioP1;P1;durP2;ratioP2;P2;SDS_P1;SDS_P2;PMS_P1;PMS_P2;Temp;Humidity;BMP_temperature;BMP_pressure;BME280_temperature;BME280_humidity;BME280_pressure;Samples;Min_cycle;Max_cycle;Signal;HPM_P1;HPM_P2
2022/09/19 00:00:33;;;;;;;;;5.50;4.25;;;;;16.00;46.56;101493.25;5082942;27;52037;-47
2022/09/19 00:02:58;;;;;;;;;7.25;5.00;;;;;16.00;46.48;101498.53;5082518;27;60281;-44
2022/09/19 00:05:23;;;;;;;;;4.25;3.75;;;;;15.99;46.49;101495.03;5094980;27;56989;-47
2022/09/19 00:07:49;;;;;;;;;4.25;2.75;;;;;16.00;46.68;101504.66;5091614;27;45191;-44
2022/09/19 00:10:14;;;;;;;;;5.75;4.00;;;;;15.99;46.66;101499.44;5099282;27;45616;-51
2022/09/19 00:12:39;;;;;;;;;5.25;3.00;;;;;15.97;46.72;101496.88;5106967;27;65230;-45
2022/09/19 00:15:06;;;;;;;;;4.00;3.75;;;;;15.98;47.40;101501.22;5093829;27;69010;-47
2022/09/19 00:17:31;;;;;;;;;3.00;3.00;;;;;15.96;47.27;101494.28;5082671;27;45365;-43
2022/09/19 00:19:56;;;;;;;;;3.75;3.75;;;;;15.91;47.14;101494.44;5096363;27;48849;-48
2022/09/19 00:22:22;;;;;;;;;4.25;3.75;;;;;15.89;46.86;101496.28;5086459;27;69283;-46
2022/09/19 00:24:49;;;;;;;;;5.75;3.00;;;;;15.91;46.85;101497.94;5087570;27;45367;-46
2022/09/19 00:27:25;;;;;;;;;5.00;4.25;;;;;15.91;47.61;101502.38;5094460;27;45208;-45
2022/09/19 00:29:52;;;;;;;;;4.00;4.00;;;;;15.89;47.34;101497.16;5090946;27;45813;-48
2022/09/19 00:32:19;;;;;;;;;6.50;4.00;;;;;15.87;47.26;101498.97;5097153;27;46317;-45
2022/09/19 00:34:47;;;;;;;;;3.50;3.50;;;;;15.85;47.01;101492.91;5100664;27;45812;-49
2022/09/19 00:37:14;;;;;;;;;5.25;3.75;;;;;15.85;46.87;101503.47;5089251;27;45441;-47
2022/09/19 00:39:40;;;;;;;;;5.75;3.75;;;;;15.84;47.28;101501.72;5091599;27;45371;-44
2022/09/19 00:42:05;;;;;;;;;5.50;3.50;;;;;15.84;47.27;101506.16;5101299;27;45568;-46
2022/09/19 00:44:30;;;;;;;;;5.00;5.00;;;;;15.83;47.74;101507.06;5090346;27;45391;-47
2022/09/19 00:47:10;;;;;;;;;7.00;4.50;;;;;15.82;47.02;101508.84;5101202;27;45448;-45
2022/09/19 00:49:39;;;;;;;;;6.50;5.75;;;;;15.84;47.21;101509.66;5099982;27;45611;-44
2022/09/19 00:52:08;;;;;;;;;4.75;4.75;;;;;15.86;47.54;101506.94;5082970;27;46566;-47
2022/09/19 00:54:40;;;;;;;;;5.50;4.00;;;;;15.85;47.42;101510.53;5089666;27;45447;-48
2022/09/19 00:57:06;;;;;;;;;5.50;3.00;;;;;15.84;47.63;101516.72;5089674;27;45305;-45
2022/09/19 00:59:35;;;;;;;;;4.25;3.50;;;;;15.83;47.98;101509.69;5096371;27;45433;-44
2022/09/19 01:02:03;;;;;;;;;7.75;3.50;;;;;15.79;47.51;101514.22;5083526;27;46156;-47
2022/09/19 01:04:32;;;;;;;;;6.00;4.25;;;;;15.74;47.87;101506.50;5089857;27;45724;-45
2022/09/19 01:07:10;;;;;;;;;6.00;6.00;;;;;15.75;47.80;101512.63;5100876;27;45402;-51
2022/09/19 01:09:54;;;;;;;;;5.00;5.00;;;;;15.74;48.18;101502.94;5082856;27;45453;-48
2022/09/19 01:12:38;;;;;;;;;4.00;3.25;;;;;15.72;48.50;101508.31;5100600;27;46093;-47
2022/09/19 01:15:12;;;;;;;;;6.50;5.25;;;;;15.73;48.10;101511.78;5100335;27;45935;-45
2022/09/19 01:17:45;;;;;;;;;6.00;6.00;;;;;15.66;48.46;101502.38;5090920;27;45458;-47
2022/09/19 01:20:30;;;;;;;;;5.75;5.25;;;;;15.73;48.13;101506.50;5096597;27;45373;-49
2022/09/19 01:23:32;;;;;;;;;7.00;4.25;;;;;15.72;47.91;101502.13;5099330;27;48170;-49
2022/09/19 01:26:15;;;;;;;;;7.00;5.50;;;;;15.73;48.03;101514.44;5093213;27;45338;-50
2022/09/19 01:29:00;;;;;;;;;4.00;4.00;;;;;15.72;48.30;101504.78;5095797;27;45419;-44
2022/09/19 01:31:29;;;;;;;;;5.25;5.25;;;;;15.72;48.18;101510.06;5097180;27;45347;-46
2022/09/19 01:34:08;;;;;;;;;5.75;5.00;;;;;15.69;48.02;101508.41;5092674;27;46393;-46
2022/09/19 01:36:38;;;;;;;;;7.00;6.00;;;;;15.67;48.29;101509.34;5096523;27;45344;-47
2022/09/19 01:39:07;;;;;;;;;6.00;4.50;;;;;15.65;48.44;101506.81;5099258;27;45301;-50
2022/09/19 01:41:33;;;;;;;;;6.25;6.25;;;;;15.63;48.37;101515.66;5097087;27;45244;-48
2022/09/19 01:44:03;;;;;;;;;4.75;3.25;;;;;15.60;48.61;101508.75;5089429;27;45994;-45
2022/09/19 01:46:48;;;;;;;;;5.00;5.00;;;;;15.60;48.52;101510.50;5100016;27;45334;-46
2022/09/19 01:49:41;;;;;;;;;6.75;5.50;;;;;15.54;49.22;101507.16;5099703;27;45279;-44
2022/09/19 01:52:24;;;;;;;;;5.00;4.25;;;;;15.53;48.93;101510.72;5118839;27;45356;-49
2022/09/19 01:55:10;;;;;;;;;5.50;3.50;;;;;15.53;48.89;101515.16;5092394;27;45368;-47
2022/09/19 01:57:47;;;;;;;;;3.75;3.50;;;;;15.49;48.71;101508.25;5100185;27;45368;-44
2022/09/19 02:00:15;;;;;;;;;5.75;4.00;;;;;15.49;48.89;101514.41;5090532;27;45339;-47
2022/09/19 02:02:57;;;;;;;;;3.00;3.00;;;;;15.47;49.23;101510.94;5081518;27;45524;-47
2022/09/19 02:05:34;;;;;;;;;4.50;4.00;;;;;15.48;49.01;101509.19;5099551;27;46358;-49
2022/09/19 02:08:23;;;;;;;;;6.25;5.75;;;;;15.46;49.27;101508.38;5091138;27;45452;-45
2022/09/19 02:10:56;;;;;;;;;6.25;4.75;;;;;15.45;49.38;101512.75;5090316;27;45514;-49
2022/09/19 02:13:24;;;;;;;;;3.75;3.00;;;;;15.46;49.52;101519.78;5098177;27;45448;-45
2022/09/19 02:16:02;;;;;;;;;4.00;3.00;;;;;15.48;49.58;101519.72;5091840;27;45552;-47
2022/09/19 02:18:31;;;;;;;;;5.75;3.25;;;;;15.46;49.82;101525.06;5088885;27;45384;-50
2022/09/19 02:21:05;;;;;;;;;4.50;2.50;;;;;15.47;49.33;101523.25;5098746;27;45239;-51
2022/09/19 02:23:34;;;;;;;;;4.25;3.25;;;;;15.43;49.38;101525.16;5098130;27;45486;-47
2022/09/19 02:26:02;;;;;;;;;4.25;3.50;;;;;15.44;49.16;101531.28;5088850;27;47048;-49
2022/09/19 02:28:31;;;;;;;;;2.00;1.75;;;;;15.44;50.17;101536.53;5096159;27;45283;-47
2022/09/19 02:30:58;;;;;;;;;4.75;3.25;;;;;15.39;49.82;101526.19;5097238;27;45328;-46
2022/09/19 02:33:23;;;;;;;;;3.25;3.25;;;;;15.38;49.97;101527.94;5088284;27;45478;-45
2022/09/19 02:35:54;;;;;;;;;4.50;3.25;;;;;15.40;49.62;101529.66;5096943;27;69713;-47
2022/09/19 02:39:00;;;;;;;;;4.25;2.50;;;;;15.40;49.84;101529.66;5083271;27;45401;-45
2022/09/19 02:41:46;;;;;;;;;4.25;2.50;;;;;15.41;49.62;101526.13;5095048;27;45468;-48
2022/09/19 02:44:19;;;;;;;;;4.00;4.00;;;;;15.42;49.97;101523.41;5107749;27;45580;-46
2022/09/19 02:47:02;;;;;;;;;3.75;2.50;;;;;15.44;49.65;101524.25;5087027;27;45390;-45
2022/09/19 02:49:47;;;;;;;;;2.75;2.75;;;;;15.44;49.32;101528.63;5097731;27;46234;-49
2022/09/19 02:52:19;;;;;;;;;5.25;2.00;;;;;15.46;49.69;101526.84;5098219;27;45299;-50
2022/09/19 02:54:49;;;;;;;;;4.75;2.25;;;;;15.47;49.39;101528.53;5088235;27;45442;-51
2022/09/19 02:57:18;;;;;;;;;3.25;2.25;;;;;15.46;49.64;101529.47;5098006;27;46295;-47
2022/09/19 02:59:46;;;;;;;;;2.00;2.00;;;;;15.47;49.71;101526.75;5096626;27;45293;-45
2022/09/19 03:02:17;;;;;;;;;1.25;1.25;;;;;15.50;50.07;101531.06;5095560;27;45392;-45
2022/09/19 03:04:47;;;;;;;;;2.50;2.50;;;;;15.50;50.00;101534.56;5088951;27;45448;-50
2022/09/19 03:07:18;;;;;;;;;2.50;2.50;;;;;15.50;49.54;101531.06;5098995;27;46231;-47
2022/09/19 03:09:53;;;;;;;;;2.50;2.50;;;;;15.48;49.36;101522.34;5085527;27;45175;-45
2022/09/19 03:12:28;;;;;;;;;2.00;1.50;;;;;15.49;49.56;101531.97;5100109;27;45220;-45
2022/09/19 03:14:58;;;;;;;;;3.25;2.25;;;;;15.46;49.79;101532.97;5091679;27;45586;-48
2022/09/19 03:17:50;;;;;;;;;3.25;3.25;;;;;15.45;49.97;101533.00;5101281;27;46963;-48
2022/09/19 03:20:18;;;;;;;;;3.75;3.00;;;;;15.45;49.83;101533.88;5088726;27;45420;-47
2022/09/19 03:22:47;;;;;;;;;2.75;2.75;;;;;15.46;49.84;101534.75;5101652;27;45367;-49
2022/09/19 03:25:16;;;;;;;;;3.25;3.25;;;;;15.47;49.38;101533.81;5102430;27;45588;-47
2022/09/19 03:27:41;;;;;;;;;4.25;3.00;;;;;15.48;49.74;101533.75;5101350;27;45443;-47
2022/09/19 03:30:09;;;;;;;;;2.50;2.50;;;;;15.49;49.89;101534.63;5098899;27;45309;-45
2022/09/19 03:32:35;;;;;;;;;3.00;2.50;;;;;15.47;49.58;101542.56;5087861;27;45652;-47
2022/09/19 03:35:02;;;;;;;;;5.50;2.75;;;;;15.43;49.36;101524.28;5102248;27;45468;-46
2022/09/19 03:37:28;;;;;;;;;2.75;2.00;;;;;15.46;49.71;101535.59;5102351;27;46940;-48
2022/09/19 03:39:53;;;;;;;;;3.75;2.75;;;;;15.43;50.05;101540.97;5108644;27;45440;-49
2022/09/19 03:42:19;;;;;;;;;3.50;3.50;;;;;15.42;50.00;101541.88;5105965;27;69423;-46
2022/09/19 03:44:45;;;;;;;;;4.75;3.50;;;;;15.38;50.09;101540.25;5098108;27;45357;-50
2022/09/19 03:47:10;;;;;;;;;3.25;2.50;;;;;15.38;50.26;101542.91;5093524;27;57486;-48
2022/09/19 03:49:35;;;;;;;;;3.25;1.50;;;;;15.39;50.23;101542.00;5097481;27;48477;-46
2022/09/19 03:52:01;;;;;;;;;5.75;3.25;;;;;15.38;49.81;101537.63;5085136;27;55360;-52
2022/09/19 03:54:27;;;;;;;;;3.50;3.50;;;;;15.38;50.42;101542.91;5088568;27;45478;-48
2022/09/19 03:56:53;;;;;;;;;3.25;2.75;;;;;15.33;50.70;101545.72;5095247;27;46250;-49
2022/09/19 03:59:18;;;;;;;;;6.00;3.50;;;;;15.34;50.23;101552.69;5101849;27;45381;-49
2022/09/19 04:01:44;;;;;;;;;3.00;2.50;;;;;15.32;50.11;101549.25;5079951;27;45406;-50
2022/09/19 04:04:10;;;;;;;;;2.25;2.25;;;;;15.31;50.48;101552.78;5106559;27;45470;-49
2022/09/19 04:06:36;;;;;;;;;3.75;3.00;;;;;15.28;50.62;101545.00;5093069;27;46091;-46
2022/09/19 04:09:02;;;;;;;;;3.50;3.50;;;;;15.24;50.69;101550.41;5101649;27;45181;-45
2022/09/19 04:11:28;;;;;;;;;5.50;3.50;;;;;15.24;50.63;101546.00;5100867;27;45418;-50
2022/09/19 04:13:54;;;;;;;;;6.00;4.25;;;;;15.24;50.29;101553.06;5097539;27;45223;-49
2022/09/19 04:16:19;;;;;;;;;4.75;3.50;;;;;15.22;50.71;101552.25;5094595;27;45975;-49
2022/09/19 04:18:50;;;;;;;;;6.25;4.50;;;;;15.21;51.13;101567.22;5099678;27;62474;-47
2022/09/19 04:21:18;;;;;;;;;3.00;3.00;;;;;15.19;51.21;101554.09;5100704;27;45279;-44
2022/09/19 04:23:44;;;;;;;;;3.50;3.50;;;;;15.17;50.84;101565.56;5099902;27;45379;-50
2022/09/19 04:26:11;;;;;;;;;1.75;1.50;;;;;15.16;51.11;101555.97;5100546;27;46152;-48
2022/09/19 04:28:38;;;;;;;;;4.25;4.25;;;;;15.16;50.79;101551.53;5085796;27;45643;-51
2022/09/19 04:31:08;;;;;;;;;5.00;5.00;;;;;15.15;50.92;101552.44;5098639;27;45534;-50
2022/09/19 04:33:33;;;;;;;;;4.00;4.00;;;;;15.14;51.50;101563.06;5095588;27;45929;-51
2022/09/19 04:35:59;;;;;;;;;4.25;4.25;;;;;15.12;51.17;101560.47;5085978;27;45957;-45
2022/09/19 04:38:25;;;;;;;;;5.50;4.50;;;;;15.09;51.50;101562.34;5086751;27;45523;-47
2022/09/19 04:40:56;;;;;;;;;5.50;5.25;;;;;15.06;51.52;101560.66;5085524;27;45389;-50
2022/09/19 04:43:22;;;;;;;;;7.25;6.00;;;;;15.06;51.24;101565.94;5086276;27;45536;-49
2022/09/19 04:45:49;;;;;;;;;3.00;3.00;;;;;15.03;51.12;101565.16;5089522;27;45675;-48
2022/09/19 04:48:16;;;;;;;;;4.00;4.00;;;;;15.05;51.26;101569.50;5093665;27;45395;-51
2022/09/19 04:50:43;;;;;;;;;4.50;4.50;;;;;15.05;50.98;101565.97;5095573;27;45379;-47
2022/09/19 04:53:16;;;;;;;;;6.50;4.00;;;;;15.03;51.46;101565.16;5095023;27;45396;-50
2022/09/19 04:55:42;;;;;;;;;6.75;3.75;;;;;15.03;51.44;101573.94;5086370;27;46374;-52
2022/09/19 04:58:07;;;;;;;;;4.00;4.00;;;;;15.04;51.08;101570.41;5087387;27;66273;-50
2022/09/19 05:00:39;;;;;;;;;6.50;4.50;;;;;15.05;51.15;101580.03;5090983;27;45272;-49
2022/09/19 05:03:12;;;;;;;;;6.25;4.25;;;;;15.03;51.22;101570.44;5085088;27;45399;-50
2022/09/19 05:05:38;;;;;;;;;8.00;4.00;;;;;15.02;51.80;101571.38;5099698;27;46017;-51
2022/09/19 05:08:05;;;;;;;;;5.75;3.75;;;;;14.99;51.29;101565.25;5107590;27;45760;-47
2022/09/19 05:10:32;;;;;;;;;4.25;4.00;;;;;15.00;51.16;101571.41;5088689;27;45261;-50
2022/09/19 05:12:58;;;;;;;;;6.75;5.00;;;;;14.97;51.68;101577.63;5091575;27;45541;-47
2022/09/19 05:15:24;;;;;;;;;4.00;4.00;;;;;14.97;51.57;101572.34;5086436;27;46232;-49
2022/09/19 05:17:52;;;;;;;;;4.75;3.50;;;;;14.98;52.05;101573.25;5081681;27;45259;-51
2022/09/19 05:20:18;;;;;;;;;2.50;2.50;;;;;14.99;51.68;101573.16;5098500;27;45331;-46
2022/09/19 05:22:44;;;;;;;;;4.25;3.75;;;;;15.00;51.57;101582.81;5098695;27;45522;-50
2022/09/19 05:25:09;;;;;;;;;6.00;5.25;;;;;15.00;51.79;101584.59;5098848;27;47247;-50
2022/09/19 05:27:36;;;;;;;;;3.50;3.50;;;;;14.98;51.66;101584.63;5084646;27;45394;-48
2022/09/19 05:30:03;;;;;;;;;5.25;4.50;;;;;14.93;51.72;101573.38;5096390;27;45423;-46
2022/09/19 05:32:29;;;;;;;;;7.25;4.75;;;;;14.98;51.57;101586.41;5097450;27;46550;-49
2022/09/19 05:34:56;;;;;;;;;4.75;4.75;;;;;14.99;51.74;101588.97;5100127;27;46982;-48
2022/09/19 05:37:22;;;;;;;;;8.50;5.00;;;;;14.98;51.48;101589.91;5097138;27;45272;-49
2022/09/19 05:39:48;;;;;;;;;6.00;5.25;;;;;14.97;51.94;101598.72;5096038;27;45346;-50
2022/09/19 05:42:13;;;;;;;;;11.25;6.50;;;;;14.94;51.70;101592.69;5093116;27;45229;-49
2022/09/19 05:44:39;;;;;;;;;10.50;8.00;;;;;14.91;52.36;101595.41;5089891;27;45257;-49
2022/09/19 05:47:04;;;;;;;;;6.75;5.50;;;;;14.86;52.13;101595.56;5090721;27;45448;-47
2022/09/19 05:49:30;;;;;;;;;7.75;5.50;;;;;14.83;52.30;101598.28;5095570;27;45565;-49
2022/09/19 05:51:56;;;;;;;;;6.50;6.00;;;;;14.82;51.86;101596.59;5092385;27;45458;-46
2022/09/19 05:54:21;;;;;;;;;8.00;5.50;;;;;14.83;51.84;101595.66;5088769;27;46013;-47
2022/09/19 05:56:50;;;;;;;;;8.50;7.00;;;;;14.83;52.01;101600.91;5090362;27;48391;-49
2022/09/19 05:59:15;;;;;;;;;6.50;5.00;;;;;14.84;52.34;101600.03;5097416;27;45457;-48
2022/09/19 06:01:41;;;;;;;;;6.75;5.50;;;;;14.85;52.09;101600.88;5093844;27;45636;-48
2022/09/19 06:04:07;;;;;;;;;7.75;5.25;;;;;14.86;52.56;101599.97;5094542;27;46967;-48
2022/09/19 06:06:35;;;;;;;;;8.00;6.25;;;;;14.85;52.37;101608.78;5095293;27;45332;-49
2022/09/19 06:09:01;;;;;;;;;9.00;6.00;;;;;14.86;52.34;101610.53;5087195;27;45571;-46
2022/09/19 06:11:27;;;;;;;;;8.00;7.00;;;;;14.86;52.18;101607.88;5089353;27;45266;-46
2022/09/19 06:16:37;;;;;;;;;9.75;5.50;;;;;14.87;52.58;101620.13;5099365;27;46018;-50
2022/09/19 06:19:02;;;;;;;;;9.50;6.25;;;;;14.84;52.31;101621.09;5098040;27;45335;-46
2022/09/19 06:21:31;;;;;;;;;8.75;6.50;;;;;14.78;52.87;101613.38;5088825;27;45532;-47
2022/09/19 06:23:56;;;;;;;;;9.00;5.50;;;;;14.76;52.81;101629.22;5095631;27;45494;-49
2022/09/19 06:26:22;;;;;;;;;5.25;4.25;;;;;14.76;52.24;101631.84;5090768;27;45218;-47
2022/09/19 06:28:48;;;;;;;;;6.75;4.25;;;;;14.78;52.85;101631.81;5099289;27;45255;-46
2022/09/19 06:31:13;;;;;;;;;5.75;4.25;;;;;14.78;52.19;101635.34;5098365;27;72148;-50
2022/09/19 06:33:41;;;;;;;;;7.25;5.50;;;;;14.83;52.46;101640.44;5092067;27;45845;-47
2022/09/19 06:36:06;;;;;;;;;6.75;5.50;;;;;14.84;52.77;101638.66;5095036;27;45309;-46
2022/09/19 06:38:32;;;;;;;;;7.25;5.50;;;;;14.82;52.45;101644.00;5093156;27;45834;-48
2022/09/19 06:40:58;;;;;;;;;6.00;6.00;;;;;14.84;52.58;101652.72;5090822;27;45470;-47
2022/09/19 06:43:24;;;;;;;;;6.25;5.75;;;;;14.86;52.25;101647.41;5086813;27;45379;-46
2022/09/19 06:45:52;;;;;;;;;6.25;6.25;;;;;14.86;52.43;101658.81;5097929;27;45757;-48
2022/09/19 06:48:17;;;;;;;;;9.50;6.00;;;;;14.87;52.31;101659.66;5104529;27;45240;-50
2022/09/19 06:50:47;;;;;;;;;6.00;6.00;;;;;14.87;52.13;101657.88;5103200;27;62047;-47
2022/09/19 06:53:13;;;;;;;;;7.50;1.50;;;;;14.89;52.88;101657.84;5095021;27;47290;-47
2022/09/19 06:55:39;;;;;;;;;6.00;4.50;;;;;14.88;52.56;101662.25;5094546;27;45389;-46
2022/09/19 06:58:05;;;;;;;;;11.25;5.25;;;;;14.90;52.79;101665.72;5096434;27;45390;-49
2022/09/19 07:00:37;;;;;;;;;8.00;6.00;;;;;14.92;52.72;101674.44;5095421;27;45378;-48
2022/09/19 07:03:05;;;;;;;;;3.25;1.75;;;;;14.92;52.99;101678.84;5096818;27;46164;-46
2022/09/19 07:05:32;;;;;;;;;8.75;6.75;;;;;14.89;53.21;101669.28;5095147;27;45263;-49
2022/09/19 07:07:57;;;;;;;;;7.75;6.75;;;;;14.90;53.08;101675.41;5094225;27;45327;-46
2022/09/19 07:10:23;;;;;;;;;6.50;4.75;;;;;14.90;53.13;101678.03;5092056;27;45491;-49
2022/09/19 07:12:52;;;;;;;;;9.50;7.75;;;;;14.91;53.23;101679.75;5093411;27;46042;-49
2022/09/19 07:15:19;;;;;;;;;8.75;7.25;;;;;14.93;52.83;101684.06;5085875;27;45382;-48
2022/09/19 07:17:44;;;;;;;;;9.25;7.25;;;;;14.94;52.60;101680.53;5100844;27;45248;-46
2022/09/19 07:20:09;;;;;;;;;11.75;9.00;;;;;14.96;52.91;101683.09;5096300;27;70787;-46
2022/09/19 07:22:35;;;;;;;;;16.75;7.75;;;;;14.99;52.52;101689.16;5097892;27;73134;-49
2022/09/19 07:25:00;;;;;;;;;5.50;4.25;;;;;15.00;52.80;101690.88;5093484;27;45455;-51
2022/09/19 07:27:26;;;;;;;;;9.75;7.50;;;;;15.03;52.72;101689.91;5093673;27;45298;-47
2022/09/19 07:29:51;;;;;;;;;10.00;8.00;;;;;15.06;52.76;101691.63;5098902;27;45305;-51
2022/09/19 07:32:17;;;;;;;;;11.75;3.50;;;;;15.07;52.60;101686.28;5078566;27;47388;-45
2022/09/19 07:34:42;;;;;;;;;9.75;9.75;;;;;15.09;52.97;101689.75;5094936;27;45303;-47
2022/09/19 07:37:07;;;;;;;;;9.25;7.50;;;;;15.12;52.71;101694.03;5087867;27;66308;-48
2022/09/19 07:39:33;;;;;;;;;11.50;7.25;;;;;15.15;52.65;101700.09;5095552;27;57171;-48
2022/09/19 07:41:58;;;;;;;;;8.50;8.00;;;;;15.16;52.46;101691.28;5094355;27;68730;-51
2022/09/19 07:44:23;;;;;;;;;12.00;9.25;;;;;15.22;52.96;101697.28;5084825;27;68659;-50
2022/09/19 07:49:34;;;;;;;;;10.25;7.50;;;;;15.31;52.64;101704.91;5094889;27;45473;-51
2022/09/19 07:51:59;;;;;;;;;8.00;7.25;;;;;15.35;52.48;101702.13;5081998;27;70857;-52
2022/09/19 07:54:25;;;;;;;;;4.75;3.00;;;;;15.37;52.72;101702.09;5091311;27;45368;-50
2022/09/19 07:56:50;;;;;;;;;9.75;8.25;;;;;15.42;52.57;101701.91;5091411;27;61231;-51
2022/09/19 07:59:15;;;;;;;;;9.25;8.00;;;;;15.45;52.13;101704.47;5090610;27;63950;-51
2022/09/19 08:01:41;;;;;;;;;7.25;6.00;;;;;15.49;52.58;101711.38;5093663;27;74339;-51
2022/09/19 08:04:07;;;;;;;;;10.25;5.75;;;;;15.54;52.43;101709.44;5092123;27;46030;-50
2022/09/19 08:06:32;;;;;;;;;10.75;6.00;;;;;15.60;52.06;101718.94;5096883;27;45338;-47
2022/09/19 08:08:58;;;;;;;;;9.00;7.00;;;;;15.62;51.92;101715.34;5092388;27;60101;-48
2022/09/19 08:11:25;;;;;;;;;6.00;5.75;;;;;15.65;52.24;101717.91;5094015;27;45348;-47
2022/09/19 08:13:50;;;;;;;;;4.00;3.75;;;;;15.69;51.30;101718.66;5114285;27;45254;-47
2022/09/19 08:16:16;;;;;;;;;4.25;2.75;;;;;15.73;51.35;101723.75;5093126;27;45237;-46
2022/09/19 08:18:41;;;;;;;;;4.50;2.75;;;;;15.77;51.58;101721.91;5098218;27;45659;-46
2022/09/19 08:21:07;;;;;;;;;5.50;3.00;;;;;15.82;51.03;101725.28;5093373;27;56068;-50
2022/09/19 08:23:32;;;;;;;;;1.75;1.75;;;;;15.87;50.95;101722.50;5098796;27;45337;-48
2022/09/19 08:26:02;;;;;;;;;1.00;0.00;;;;;15.89;50.13;101726.78;5095927;27;45683;-46
2022/09/19 08:28:30;;;;;;;;;2.25;2.25;;;;;15.95;50.30;101725.72;5101414;27;45361;-48
2022/09/19 08:30:59;;;;;;;;;5.00;1.50;;;;;16.00;50.40;101725.56;5080467;27;45586;-48
2022/09/19 08:33:25;;;;;;;;;4.75;1.75;;;;;16.02;49.95;101729.88;5095244;27;46181;-52
2022/09/19 08:35:52;;;;;;;;;2.75;2.00;;;;;16.07;49.72;101732.38;5100519;27;66647;-48
2022/09/19 08:38:17;;;;;;;;;0.75;0.75;;;;;16.11;49.30;101731.34;5099736;27;45422;-49
2022/09/19 08:40:54;;;;;;;;;3.75;0.00;;;;;16.16;49.06;101737.34;5097920;27;52906;-48
2022/09/19 08:43:41;;;;;;;;;2.50;0.75;;;;;16.20;48.99;101731.06;5100439;27;45363;-47
2022/09/19 08:46:17;;;;;;;;;1.00;1.00;;;;;16.26;49.00;101729.97;5095568;27;45415;-49
2022/09/19 08:48:53;;;;;;;;;0.00;0.00;;;;;16.31;48.84;101730.69;5099351;27;45327;-50
2022/09/19 08:51:29;;;;;;;;;1.00;0.00;;;;;16.36;47.94;101728.75;5096938;27;45423;-48
2022/09/19 08:54:03;;;;;;;;;4.25;0.75;;;;;16.42;47.14;101736.44;5096784;27;45859;-46
2022/09/19 08:56:29;;;;;;;;;0.00;0.00;;;;;16.48;46.73;101738.00;5100227;27;45307;-50
2022/09/19 08:59:01;;;;;;;;;1.00;0.00;;;;;16.51;46.45;101744.03;5098968;27;45511;-46
2022/09/19 09:01:32;;;;;;;;;0.00;0.00;;;;;16.56;46.99;101741.22;5097195;27;46247;-49
2022/09/19 09:04:11;;;;;;;;;0.50;0.00;;;;;16.63;46.85;101742.72;5098972;27;45416;-46
2022/09/19 09:06:50;;;;;;;;;3.00;2.00;;;;;16.71;46.68;101742.44;5096806;27;45636;-48
2022/09/19 09:09:36;;;;;;;;;1.75;1.00;;;;;16.80;46.57;101749.16;5090998;27;45433;-50
2022/09/19 09:12:31;;;;;;;;;2.00;1.00;;;;;16.89;46.38;101744.47;5088044;27;46130;-50
2022/09/19 09:15:17;;;;;;;;;2.50;0.00;;;;;16.97;46.36;101746.81;5096355;27;45933;-47
2022/09/19 09:17:51;;;;;;;;;1.00;1.00;;;;;17.05;45.38;101744.75;5100974;27;45467;-46
2022/09/19 09:20:55;;;;;;;;;0.00;0.00;;;;;17.14;45.86;101746.19;5098700;27;45467;-45
2022/09/19 09:23:27;;;;;;;;;2.00;1.50;;;;;17.22;44.55;101751.16;5078816;27;45465;-48
2022/09/19 09:26:02;;;;;;;;;6.00;2.00;;;;;17.27;44.27;101749.19;5099221;27;45920;-45
2022/09/19 09:28:40;;;;;;;;;3.25;0.00;;;;;17.34;43.80;101748.03;5099542;27;45206;-46
2022/09/19 09:31:25;;;;;;;;;0.00;0.00;;;;;17.40;43.87;101752.22;5099795;27;45512;-48
2022/09/19 09:34:10;;;;;;;;;2.50;0.00;;;;;17.43;43.84;101752.97;5092331;27;46140;-48
2022/09/19 09:36:42;;;;;;;;;0.00;0.00;;;;;17.50;44.09;101753.59;5088076;27;45783;-48
2022/09/19 09:39:11;;;;;;;;;1.00;0.00;;;;;17.54;43.84;101749.88;5099401;27;45376;-45
2022/09/19 09:41:49;;;;;;;;;0.50;0.00;;;;;17.57;43.61;101762.16;5100835;27;45473;-48
2022/09/19 09:44:51;;;;;;;;;0.00;0.00;;;;;17.57;43.57;101755.06;5102728;27;46960;-46
2022/09/19 09:47:41;;;;;;;;;0.75;0.00;;;;;17.59;43.15;101757.66;5059942;28;45818;-46
2022/09/19 09:50:24;;;;;;;;;0.00;0.00;;;;;17.60;43.47;101762.91;5088792;27;45222;-47
2022/09/19 09:53:02;;;;;;;;;18.75;15.75;;;;;17.64;43.54;101756.53;5096373;27;45410;-45
2022/09/19 09:58:38;;;;;;;;;2.25;0.00;;;;;17.70;42.03;101751.94;5083710;27;45314;-47
2022/09/19 10:04:34;;;;;;;;;0.00;0.00;;;;;17.75;42.41;101747.31;5091837;27;45454;-48
2022/09/19 10:07:17;;;;;;;;;0.00;0.00;;;;;17.76;42.48;101744.59;5096501;27;46225;-48
2022/09/19 10:09:48;;;;;;;;;1.50;1.00;;;;;17.79;42.67;101744.44;5092189;27;45250;-50
2022/09/19 10:12:18;;;;;;;;;0.25;0.00;;;;;17.83;42.47;101742.56;5098464;27;45410;-50
2022/09/19 10:14:44;;;;;;;;;2.25;0.50;;;;;17.84;41.95;101747.78;5111839;27;45602;-50
2022/09/19 10:17:09;;;;;;;;;6.75;1.00;;;;;17.86;42.01;101741.59;5086791;27;68922;-45
2022/09/19 10:19:44;;;;;;;;;4.00;3.00;;;;;17.87;42.36;101743.34;5098110;27;45433;-51
2022/09/19 10:22:15;;;;;;;;;1.00;1.00;;;;;17.89;41.67;101742.34;5095851;27;45245;-49
2022/09/19 10:24:59;;;;;;;;;2.00;0.25;;;;;17.91;41.37;101743.13;5088378;27;45463;-50
2022/09/19 10:27:31;;;;;;;;;2.00;0.00;;;;;17.91;41.16;101737.81;5091089;27;47357;-50
2022/09/19 10:30:02;;;;;;;;;1.50;0.00;;;;;17.92;40.58;101736.91;5097265;27;45386;-45
2022/09/19 10:32:39;;;;;;;;;0.75;0.00;;;;;17.93;40.47;101729.81;5081244;27;45409;-45
2022/09/19 10:35:38;;;;;;;;;2.50;0.00;;;;;17.95;40.83;101733.25;5097308;27;45373;-50
2022/09/19 10:38:13;;;;;;;;;3.25;1.50;;;;;18.00;40.84;101739.22;5097860;27;46903;-49
2022/09/19 10:40:52;;;;;;;;;4.50;2.00;;;;;18.03;40.32;101734.66;5088925;27;45718;-47
2022/09/19 10:43:22;;;;;;;;;0.25;0.00;;;;;18.07;40.79;101731.91;5084626;27;45177;-48
2022/09/19 10:45:47;;;;;;;;;1.00;1.00;;;;;18.12;40.38;101733.41;5084185;27;45499;-45
2022/09/19 10:48:33;;;;;;;;;1.50;1.50;;;;;18.18;40.04;101730.53;5093477;27;45521;-48
2022/09/19 10:50:59;;;;;;;;;2.00;0.00;;;;;18.27;39.48;101733.69;5093616;27;45535;-46
2022/09/19 10:53:27;;;;;;;;;0.00;0.00;;;;;18.33;40.18;101733.44;5090106;27;45340;-46
2022/09/19 10:55:53;;;;;;;;;2.00;0.50;;;;;18.41;39.93;101728.63;5096932;27;45240;-49
2022/09/19 10:58:26;;;;;;;;;0.25;0.25;;;;;18.47;40.02;101730.16;5110707;27;45563;-47
2022/09/19 11:01:03;;;;;;;;;2.75;1.00;;;;;18.53;39.97;101729.91;5104615;27;45420;-47
2022/09/19 11:03:35;;;;;;;;;2.00;1.00;;;;;18.62;39.78;101731.28;5093799;27;45299;-47
2022/09/19 11:06:06;;;;;;;;;1.00;1.00;;;;;18.68;39.95;101725.69;5084391;27;45471;-45
2022/09/19 11:08:43;;;;;;;;;1.00;1.00;;;;;18.70;39.55;101724.69;5095161;27;46367;-47
2022/09/19 11:11:36;;;;;;;;;2.00;0.00;;;;;18.70;39.54;101730.00;5082616;27;45689;-52
2022/09/19 11:14:31;;;;;;;;;2.50;0.00;;;;;18.68;37.33;101726.56;5094635;27;45435;-46
2022/09/19 11:17:17;;;;;;;;;0.00;0.00;;;;;18.65;38.69;101728.50;5085987;27;45318;-49
2022/09/19 11:19:52;;;;;;;;;1.00;0.00;;;;;18.63;38.45;101723.25;5097721;27;45445;-47
2022/09/19 11:22:47;;;;;;;;;0.75;0.00;;;;;18.63;38.89;101717.94;5098986;27;45335;-46
2022/09/19 11:25:32;;;;;;;;;3.00;0.00;;;;;18.65;38.41;101717.88;5099879;27;45349;-47
2022/09/19 11:28:15;;;;;;;;;0.00;0.00;;;;;18.65;38.79;101721.38;5085836;27;45401;-46
2022/09/19 11:30:56;;;;;;;;;1.25;1.00;;;;;18.68;38.81;101723.03;5084503;27;46037;-47
2022/09/19 11:33:44;;;;;;;;;2.50;1.00;;;;;18.71;39.04;101725.56;5090889;27;45658;-48
2022/09/19 11:36:25;;;;;;;;;4.00;1.00;;;;;18.73;38.77;101729.88;5090855;27;45396;-46
2022/09/19 11:39:03;;;;;;;;;2.50;2.00;;;;;18.75;38.61;101732.44;5092454;27;45337;-47
2022/09/19 11:41:56;;;;;;;;;4.50;3.00;;;;;18.78;38.69;101725.19;5093985;27;46197;-47
2022/09/19 11:44:43;;;;;;;;;4.25;3.00;;;;;18.79;38.20;101718.13;5090705;27;45887;-45
2022/09/19 11:47:44;;;;;;;;;1.00;1.00;;;;;18.81;38.30;101728.66;5104291;27;45497;-50
2022/09/19 11:50:10;;;;;;;;;2.00;2.00;;;;;18.83;37.67;101726.81;5089914;27;45343;-51
2022/09/19 11:53:04;;;;;;;;;3.00;1.00;;;;;18.85;38.12;101720.50;5092075;27;46088;-47
2022/09/19 11:55:33;;;;;;;;;0.25;0.25;;;;;18.89;37.87;101713.25;5091642;27;45594;-52